createdAt,value
2023-01-13T00:00:55.049Z,50.875370
2023-01-13T00:01:55.010Z,50.875332
2023-01-13T00:02:55.043Z,50.875404
2023-01-13T00:03:55.078Z,50.875435
2023-01-13T00:04:55.106Z,50.875408
2023-01-13T00:05:54.937Z,50.875420
2023-01-13T00:06:55.045Z,50.875271
2023-01-13T00:07:54.952Z,50.875057
2023-01-13T00:08:54.984Z,50.875191
2023-01-13T00:09:54.967Z,50.875286
2023-01-13T00:10:54.959Z,50.875271
2023-01-13T00:11:54.989Z,50.875328
2023-01-13T00:12:54.965Z,50.875572
2023-01-13T00:13:55.051Z,50.875484
2023-01-13T00:14:54.946Z,50.875317
2023-01-13T00:15:54.926Z,50.875153
2023-01-13T00:16:54.901Z,50.875237
2023-01-13T00:17:54.987Z,50.875374
2023-01-13T00:18:54.916Z,50.875374
2023-01-13T00:19:54.882Z,50.875401
2023-01-13T00:20:54.898Z,50.875553
2023-01-13T00:21:54.847Z,50.875317
2023-01-13T00:22:54.885Z,50.875305
2023-01-13T00:23:54.906Z,50.875286
2023-01-13T00:24:54.844Z,50.875107
2023-01-13T00:25:54.778Z,50.874847
2023-01-13T00:26:54.809Z,50.875103
2023-01-13T00:27:54.786Z,50.875095
2023-01-13T00:28:54.745Z,50.875404
2023-01-13T00:29:54.759Z,50.875126
2023-01-13T00:30:54.890Z,50.875076
2023-01-13T00:31:54.832Z,50.875179
2023-01-13T00:32:54.727Z,50.875351
2023-01-13T00:33:54.716Z,50.875210
2023-01-13T00:34:54.789Z,50.875298
2023-01-13T00:35:54.733Z,50.875458
2023-01-13T00:36:54.727Z,50.875977
2023-01-13T00:37:54.666Z,50.875336
2023-01-13T00:38:54.674Z,50.875179
2023-01-13T00:39:54.723Z,50.875294
2023-01-13T00:40:54.641Z,50.875408
2023-01-13T00:41:54.710Z,50.875458
2023-01-13T00:42:54.651Z,50.875347
2023-01-13T00:43:54.668Z,50.875240
2023-01-13T00:44:54.634Z,50.875408
2023-01-13T00:45:54.657Z,50.875576
2023-01-13T00:46:54.617Z,50.875526
2023-01-13T00:47:54.546Z,50.876297
2023-01-13T00:48:54.559Z,50.876331
2023-01-13T00:49:54.611Z,50.876160
2023-01-13T00:50:54.543Z,50.875561
2023-01-13T00:51:54.555Z,50.875889
2023-01-13T00:52:54.583Z,50.876133
2023-01-13T00:53:54.525Z,50.876133
2023-01-13T00:54:54.540Z,50.875568
2023-01-13T00:55:54.519Z,50.875408
2023-01-13T00:56:54.487Z,50.875473
2023-01-13T00:57:54.463Z,50.875523
2023-01-13T00:58:54.519Z,50.875576
2023-01-13T00:59:54.530Z,50.875393
2023-01-13T01:00:54.589Z,50.875275
2023-01-13T01:01:54.611Z,50.875233
2023-01-13T01:02:54.480Z,50.875313
2023-01-13T01:03:54.441Z,50.875343
2023-01-13T01:04:54.449Z,50.875347
2023-01-13T01:05:54.453Z,50.875359
2023-01-13T01:06:54.351Z,50.875313
2023-01-13T01:07:54.372Z,50.875275
2023-01-13T01:08:54.384Z,50.875282
2023-01-13T01:09:54.411Z,50.875240
2023-01-13T01:10:54.358Z,50.875450
2023-01-13T01:11:54.352Z,50.875286
2023-01-13T01:12:54.357Z,50.875324
2023-01-13T01:13:54.329Z,50.875309
2023-01-13T01:14:54.347Z,50.875301
2023-01-13T01:15:54.346Z,50.875313
2023-01-13T01:16:54.386Z,50.875301
2023-01-13T01:17:54.339Z,50.875340
2023-01-13T01:18:54.324Z,50.875340
2023-01-13T01:19:54.311Z,50.875301
2023-01-13T01:20:54.289Z,50.875290
2023-01-13T01:21:54.298Z,50.875435
2023-01-13T01:22:54.231Z,50.875393
2023-01-13T01:23:54.257Z,50.875469
2023-01-13T01:24:54.236Z,50.875458
2023-01-13T01:25:54.214Z,50.875397
2023-01-13T01:26:54.216Z,50.875351
2023-01-13T01:27:54.227Z,50.875275
2023-01-13T01:28:54.184Z,50.875282
2023-01-13T01:29:54.231Z,50.875313
2023-01-13T01:30:54.173Z,50.875320
2023-01-13T01:31:54.165Z,50.875366
2023-01-13T01:32:54.164Z,50.875366
2023-01-13T01:33:54.153Z,50.875343
2023-01-13T01:34:54.184Z,50.875374
2023-01-13T01:35:54.090Z,50.875443
2023-01-13T01:36:54.113Z,50.875404
2023-01-13T01:37:54.141Z,50.875420
2023-01-13T01:38:54.076Z,50.875336
2023-01-13T01:39:54.079Z,50.875320
2023-01-13T01:40:54.095Z,50.875359
2023-01-13T01:41:54.111Z,50.875420
2023-01-13T01:42:54.022Z,50.875450
2023-01-13T01:43:54.053Z,50.875420
2023-01-13T01:44:54.044Z,50.875267
2023-01-13T01:45:54.038Z,50.875397
2023-01-13T01:46:54.050Z,50.875607
2023-01-13T01:47:53.987Z,50.875488
2023-01-13T01:48:54.028Z,50.875347
2023-01-13T01:49:53.992Z,50.875362
2023-01-13T01:50:53.977Z,50.875389
2023-01-13T01:51:53.964Z,50.875381
2023-01-13T01:52:54.022Z,50.875359
2023-01-13T01:53:53.945Z,50.875328
2023-01-13T01:54:53.972Z,50.875370
2023-01-13T01:55:53.964Z,50.875427
2023-01-13T01:56:53.872Z,50.875458
2023-01-13T01:57:53.929Z,50.875313
2023-01-13T01:58:53.874Z,50.875416
2023-01-13T01:59:53.897Z,50.875462
2023-01-13T02:00:54.008Z,50.875439
2023-01-13T02:01:54.167Z,50.875389
2023-01-13T02:02:53.880Z,50.875496
2023-01-13T02:03:53.884Z,50.875458
2023-01-13T02:04:53.864Z,50.875458
2023-01-13T02:05:53.937Z,50.875408
2023-01-13T02:06:53.806Z,50.875408
2023-01-13T02:07:53.816Z,50.875454
2023-01-13T02:08:53.791Z,50.875515
2023-01-13T02:09:53.797Z,50.875328
2023-01-13T02:10:53.901Z,50.875401
2023-01-13T02:11:53.829Z,50.875427
2023-01-13T02:12:53.811Z,50.875278
2023-01-13T02:13:53.803Z,50.875320
2023-01-13T02:14:53.732Z,50.875263
2023-01-13T02:15:53.766Z,50.875412
2023-01-13T02:16:53.695Z,50.875393
2023-01-13T02:17:53.702Z,50.875271
2023-01-13T02:18:53.761Z,50.875252
2023-01-13T02:19:53.721Z,50.875408
2023-01-13T02:20:53.681Z,50.875324
2023-01-13T02:21:53.643Z,50.875278
2023-01-13T02:22:53.655Z,50.875309
2023-01-13T02:23:53.674Z,50.875389
2023-01-13T02:24:53.572Z,50.875259
2023-01-13T02:25:53.696Z,50.875320
2023-01-13T02:26:53.606Z,50.875526
2023-01-13T02:27:53.599Z,50.875397
2023-01-13T02:28:53.609Z,50.875378
2023-01-13T02:29:53.696Z,50.875519
2023-01-13T02:30:53.576Z,50.875324
2023-01-13T02:31:53.634Z,50.875278
2023-01-13T02:32:53.665Z,50.875317
2023-01-13T02:33:53.572Z,50.875435
2023-01-13T02:34:53.575Z,50.875420
2023-01-13T02:35:53.989Z,50.875786
2023-01-13T02:36:53.514Z,50.875340
2023-01-13T02:37:53.569Z,50.875393
2023-01-13T02:38:53.512Z,50.875443
2023-01-13T02:39:53.519Z,50.875351
2023-01-13T02:40:53.515Z,50.875374
2023-01-13T02:41:53.487Z,50.875420
2023-01-13T02:42:53.448Z,50.875408
2023-01-13T02:43:53.478Z,50.875305
2023-01-13T02:44:53.447Z,50.875370
2023-01-13T02:45:53.512Z,50.875881
2023-01-13T02:46:53.518Z,50.875423
2023-01-13T02:47:53.435Z,50.875317
2023-01-13T02:48:53.416Z,50.875320
2023-01-13T02:49:53.378Z,50.875332
2023-01-13T02:50:53.468Z,50.875412
2023-01-13T02:51:53.397Z,50.875473
2023-01-13T02:52:53.388Z,50.875332
2023-01-13T02:53:53.411Z,50.875340
2023-01-13T02:54:53.362Z,50.875431
2023-01-13T02:55:53.400Z,50.875328
2023-01-13T02:56:53.343Z,50.875294
2023-01-13T02:57:53.351Z,50.875435
2023-01-13T02:58:53.260Z,50.875340
2023-01-13T02:59:53.235Z,50.875301
2023-01-13T03:00:53.352Z,50.875305
2023-01-13T03:01:53.366Z,50.875416
2023-01-13T03:02:53.288Z,50.875351
2023-01-13T03:03:53.276Z,50.875351
2023-01-13T03:04:53.157Z,50.875362
2023-01-13T03:05:53.173Z,50.875381
2023-01-13T09:01:13.927Z,50.875439
2023-01-13T09:02:14.065Z,50.875370
2023-01-13T09:03:13.932Z,50.875160
2023-01-13T09:04:13.913Z,50.875145
2023-01-13T09:05:14.670Z,50.875069
2023-01-13T09:06:13.917Z,50.874928
2023-01-13T09:07:13.820Z,50.875175
2023-01-13T09:08:13.857Z,50.875122
2023-01-13T09:09:13.891Z,50.875278
2023-01-13T09:10:13.824Z,50.875305
2023-01-13T09:11:13.791Z,50.875381
2023-01-13T09:12:13.803Z,50.875343
2023-01-13T09:13:13.933Z,50.875362
2023-01-13T09:14:13.798Z,50.875404
2023-01-13T09:15:13.866Z,50.875423
2023-01-13T09:16:13.759Z,50.875038
2023-01-13T09:17:13.783Z,50.875019
2023-01-13T09:18:13.720Z,50.875217
2023-01-13T09:19:13.744Z,50.875256
2023-01-13T09:20:13.829Z,50.875237
2023-01-13T09:21:13.743Z,50.875305
2023-01-13T09:22:13.701Z,50.875385
2023-01-13T09:23:13.764Z,50.875385
2023-01-13T09:24:13.772Z,50.875359
2023-01-13T09:25:13.658Z,50.875404
2023-01-13T09:26:13.717Z,50.875320
2023-01-13T09:27:13.700Z,50.875301
2023-01-13T09:28:13.676Z,50.875294
2023-01-13T09:29:13.675Z,50.875305
2023-01-13T09:30:13.644Z,50.875458
2023-01-13T09:31:13.661Z,50.875351
2023-01-13T09:32:13.650Z,50.875286
2023-01-13T09:33:13.579Z,50.875183
2023-01-13T09:34:13.624Z,50.875206
2023-01-13T09:35:13.592Z,50.875210
2023-01-13T09:36:13.544Z,50.875290
2023-01-13T09:37:13.559Z,50.875351
2023-01-13T09:38:13.525Z,50.875351
2023-01-13T09:39:13.526Z,50.875153
2023-01-13T09:40:13.582Z,50.875267
2023-01-13T09:41:13.498Z,50.875298
2023-01-13T09:42:13.496Z,50.875362
2023-01-13T09:43:13.561Z,50.875278
2023-01-13T09:44:13.589Z,50.875278
2023-01-13T09:46:34.423Z,50.875309
2023-01-13T09:46:36.239Z,50.875309
2023-01-13T09:47:36.061Z,50.875473
2023-01-13T09:48:36.095Z,50.875504
2023-01-13T09:49:35.938Z,50.875443
2023-01-13T09:50:36.045Z,50.875351
2023-01-13T09:51:36.059Z,50.875324
2023-01-13T09:52:36.014Z,50.875381
2023-01-13T09:53:36.053Z,50.875275
2023-01-13T09:54:35.958Z,50.875259
2023-01-13T09:55:35.952Z,50.875240
2023-01-13T09:56:36.031Z,50.875328
2023-01-13T09:57:36.727Z,50.875389
2023-01-13T09:58:35.937Z,50.875454
2023-01-13T09:59:35.966Z,50.875362
2023-01-13T10:00:35.956Z,50.875404
2023-01-13T10:01:35.926Z,50.875275
2023-01-13T10:02:35.941Z,50.875469
2023-01-13T10:03:35.990Z,50.875107
2023-01-13T10:04:35.909Z,50.875088
2023-01-13T10:05:35.914Z,50.875103
2023-01-13T10:06:35.842Z,50.875103
2023-01-13T10:07:36.718Z,50.875156
2023-01-13T10:08:35.920Z,50.875214
2023-01-13T10:09:35.834Z,50.875214
2023-01-13T10:10:35.969Z,50.875214
2023-01-13T10:11:35.833Z,50.875214
2023-01-13T10:12:35.809Z,50.875214
2023-01-13T10:13:35.768Z,50.875214
2023-01-13T10:14:35.752Z,50.875214
2023-01-13T10:15:35.753Z,50.875214
2023-01-13T10:16:35.875Z,50.875214
2023-01-13T10:17:35.725Z,50.875214
2023-01-13T10:18:35.712Z,50.875214
2023-01-13T10:19:35.750Z,50.875214
2023-01-13T10:20:35.689Z,50.875214
2023-01-13T10:21:35.661Z,50.875214
2023-01-13T10:22:35.626Z,50.875214
2023-01-13T10:23:35.669Z,50.875214
2023-01-13T10:24:35.704Z,50.875214
2023-01-13T10:25:35.710Z,50.875214
2023-01-13T10:26:35.722Z,50.875214
2023-01-13T10:27:35.693Z,50.875214
2023-01-13T10:28:35.643Z,50.875214
2023-01-13T10:29:35.589Z,50.875214
2023-01-13T10:30:35.639Z,50.875214
2023-01-13T10:31:35.676Z,50.875214
2023-01-13T10:32:35.563Z,50.875214
2023-01-13T10:33:35.568Z,50.875214
2023-01-13T10:34:35.516Z,50.875214
2023-01-13T10:35:35.580Z,50.875214
2023-01-13T10:36:35.590Z,50.875214
2023-01-13T10:37:35.534Z,50.875214
2023-01-13T10:38:35.499Z,50.875214
2023-01-13T10:39:35.527Z,50.875214
2023-01-13T10:40:35.538Z,50.875214
2023-01-13T10:41:35.520Z,50.875214
2023-01-13T10:42:35.486Z,50.875214
2023-01-13T10:43:35.451Z,50.875214
2023-01-13T10:44:35.446Z,50.875214
2023-01-13T10:45:35.483Z,50.875214
2023-01-13T10:46:35.516Z,50.875214
2023-01-13T10:47:35.925Z,50.875214
2023-01-13T10:48:35.404Z,50.875214
2023-01-13T10:49:35.459Z,50.875214
2023-01-13T10:50:35.364Z,50.875214
2023-01-13T10:51:35.496Z,50.875214
2023-01-13T10:52:35.536Z,50.875214
2023-01-13T10:53:36.088Z,50.875214
2023-01-13T10:54:35.517Z,50.875214
2023-01-13T10:55:35.448Z,50.875214
2023-01-13T10:56:35.533Z,50.875214
2023-01-13T10:57:35.478Z,50.875214
2023-01-13T10:58:35.417Z,50.875214
2023-01-13T10:59:35.379Z,50.875214
2023-01-13T11:00:35.415Z,50.875214
2023-01-13T11:01:35.468Z,50.875214
2023-01-13T11:02:35.426Z,50.875214
2023-01-13T11:03:35.425Z,50.875214
2023-01-13T11:04:35.423Z,50.875214
2023-01-13T11:05:35.330Z,50.875214
2023-01-13T11:06:35.329Z,50.875214
2023-01-13T11:07:35.417Z,50.875214
2023-01-13T11:08:35.333Z,50.875214
2023-01-13T11:09:35.323Z,50.875214
2023-01-13T11:10:35.372Z,50.875214
2023-01-13T11:11:35.434Z,50.875214
2023-01-13T11:12:35.381Z,50.875214
2023-01-13T11:13:35.320Z,50.875214
2023-01-13T11:14:35.205Z,50.875214
2023-01-13T11:15:35.276Z,50.875214
2023-01-13T11:16:35.293Z,50.875214
2023-01-13T11:17:35.192Z,50.875214
2023-01-13T11:18:35.292Z,50.875214
2023-01-13T11:19:37.172Z,50.875214
2023-01-13T11:20:35.199Z,50.875214
2023-01-13T11:21:35.340Z,50.875214
2023-01-13T11:22:35.059Z,50.875214
2023-01-13T11:23:35.063Z,50.875214
2023-01-13T17:18:35.931Z,50.875450
2023-01-13T17:19:35.916Z,50.875431
2023-01-13T17:20:38.448Z,50.875397
2023-01-13T17:21:35.913Z,50.875374
2023-01-13T17:22:36.914Z,50.875446
2023-01-13T17:23:35.893Z,50.875446
2023-01-13T17:24:36.041Z,50.875202
2023-01-13T17:25:35.874Z,50.875202
2023-01-13T17:26:35.935Z,50.875381
2023-01-13T17:27:35.919Z,50.875187
2023-01-13T17:28:35.830Z,50.875206
2023-01-13T17:29:35.871Z,50.875153
2023-01-13T17:30:35.849Z,50.875183
2023-01-13T17:31:35.847Z,50.875256
2023-01-13T17:32:35.830Z,50.875282
2023-01-13T17:33:35.811Z,50.875168
2023-01-13T17:34:35.798Z,50.875217
2023-01-13T17:35:35.767Z,50.875160
2023-01-13T17:36:35.812Z,50.875214
2023-01-13T17:37:35.781Z,50.875237
2023-01-13T17:38:35.758Z,50.875504
2023-01-13T17:39:35.749Z,50.875210
2023-01-13T17:40:36.740Z,50.875408
2023-01-13T17:41:35.698Z,50.875408
2023-01-13T17:42:35.807Z,50.875408
2023-01-13T17:43:35.704Z,50.875507
2023-01-13T17:44:35.705Z,50.875431
2023-01-13T17:45:35.785Z,50.875347
2023-01-13T17:46:35.726Z,50.875286
2023-01-13T17:47:35.661Z,50.875229
2023-01-13T17:48:35.653Z,50.875301
2023-01-13T17:49:35.687Z,50.875294
2023-01-13T17:50:35.700Z,50.875401
2023-01-13T17:51:35.642Z,50.875370
2023-01-13T17:52:35.613Z,50.875393
2023-01-13T17:53:35.642Z,50.875431
2023-01-13T17:54:35.604Z,50.875416
2023-01-13T17:55:35.578Z,50.875446
2023-01-13T17:56:35.587Z,50.875484
2023-01-13T17:57:35.547Z,50.875263
2023-01-13T17:58:35.578Z,50.875408
2023-01-13T17:59:35.524Z,50.875420
2023-01-13T18:00:35.513Z,50.875378
2023-01-13T18:01:35.709Z,50.875343
2023-01-13T18:02:35.524Z,50.875393
2023-01-13T18:03:35.524Z,50.875381
2023-01-13T18:04:35.511Z,50.875435
2023-01-13T18:05:35.488Z,50.875378
2023-01-13T18:06:35.456Z,50.875332
2023-01-13T18:07:35.463Z,50.875401
2023-01-13T18:08:35.408Z,50.875385
2023-01-13T18:09:36.458Z,50.875340
2023-01-13T18:10:35.423Z,50.875355
2023-01-13T18:11:35.449Z,50.875809
2023-01-13T18:12:35.424Z,50.875652
2023-01-13T18:13:35.410Z,50.875294
2023-01-13T18:14:35.410Z,50.875332
2023-01-13T18:15:35.416Z,50.875362
2023-01-13T18:16:35.500Z,50.875343
2023-01-13T18:17:35.360Z,50.875381
2023-01-13T18:18:35.350Z,50.875462
2023-01-13T18:19:35.345Z,50.875252
2023-01-13T18:20:35.335Z,50.875164
2023-01-13T18:21:35.310Z,50.875336
2023-01-13T18:22:35.301Z,50.875324
2023-01-13T18:23:35.424Z,50.875488
2023-01-13T18:24:35.372Z,50.875381
2023-01-13T18:25:35.427Z,50.875481
2023-01-13T18:26:35.325Z,50.875397
2023-01-13T18:27:35.280Z,50.875351
2023-01-13T18:28:35.232Z,50.875378
2023-01-13T18:29:35.239Z,50.875389
2023-01-13T18:30:35.283Z,50.875412
2023-01-13T18:31:35.210Z,50.875336
2023-01-13T18:32:35.199Z,50.875420
2023-01-13T18:33:35.205Z,50.875340
2023-01-13T18:34:35.190Z,50.875378
2023-01-13T18:35:35.170Z,50.875202
2023-01-13T18:36:35.158Z,50.874943
2023-01-13T18:37:35.168Z,50.874897
2023-01-13T18:38:35.147Z,50.874969
2023-01-13T18:39:35.137Z,50.875412
2023-01-13T18:40:35.138Z,50.875263
2023-01-13T18:41:35.096Z,50.874214
2023-01-13T18:42:35.106Z,50.875465
2023-01-13T18:43:35.082Z,50.875397
2023-01-13T18:44:35.106Z,50.875641
2023-01-13T18:45:35.083Z,50.875355
2023-01-13T18:46:35.046Z,50.875351
2023-01-13T18:47:35.046Z,50.875473
2023-01-13T18:48:35.035Z,50.875351
2023-01-13T18:49:35.025Z,50.875328
2023-01-13T18:50:35.009Z,50.875328
2023-01-13T18:51:35.015Z,50.875328
2023-01-13T18:52:34.975Z,50.875328
2023-01-13T18:53:34.994Z,50.875328
2023-01-13T18:54:34.990Z,50.875328
2023-01-13T18:55:34.976Z,50.875328
2023-01-13T18:56:34.975Z,50.875328
2023-01-13T18:57:35.983Z,50.875328
2023-01-13T18:58:35.936Z,50.875175
2023-01-13T18:59:34.973Z,50.875141
2023-01-13T19:00:34.915Z,50.875320
2023-01-13T19:01:34.991Z,50.875320
2023-01-13T19:02:34.885Z,50.875351
2023-01-13T19:03:34.916Z,50.875351
2023-01-13T19:04:34.884Z,50.875351
2023-01-13T19:05:34.897Z,50.875351
2023-01-13T19:06:34.907Z,50.875351
2023-01-13T19:07:34.875Z,50.875351
2023-01-13T19:08:34.873Z,50.875351
2023-01-13T19:09:34.830Z,50.875351
2023-01-13T19:10:34.816Z,50.875351
2023-01-13T19:11:34.828Z,50.875351
2023-01-13T19:12:34.794Z,50.875351
2023-01-13T19:13:34.796Z,50.875351
2023-01-13T19:14:34.761Z,50.875351
2023-01-13T19:15:34.784Z,50.875351
2023-01-13T19:16:34.739Z,50.875351
2023-01-13T19:17:34.756Z,50.875351
2023-01-13T19:18:35.746Z,50.875351
2023-01-13T19:19:34.803Z,50.875351
2023-01-13T19:20:34.766Z,50.875351
2023-01-13T19:21:34.733Z,50.875351
2023-01-13T19:22:34.707Z,50.875351
2023-01-13T19:23:34.708Z,50.875351
2023-01-13T19:24:34.687Z,50.875351
2023-01-13T19:25:34.670Z,50.875351
2023-01-13T19:26:34.652Z,50.875351
2023-01-13T19:27:34.644Z,50.875351
2023-01-13T19:28:34.632Z,50.875351
2023-01-13T19:29:34.614Z,50.875351
2023-01-13T19:30:34.612Z,50.875351
2023-01-13T19:31:34.617Z,50.875351
2023-01-13T19:32:34.621Z,50.875351
2023-01-13T19:33:34.593Z,50.875351
2023-01-13T19:34:34.567Z,50.875351
2023-01-13T19:35:34.591Z,50.875351
2023-01-13T19:36:34.548Z,50.875351
2023-01-13T19:37:34.561Z,50.875351
2023-01-13T19:38:34.550Z,50.875351
2023-01-13T19:39:34.513Z,50.875351
2023-01-13T19:40:34.507Z,50.875351
2023-01-13T19:41:34.505Z,50.875351
2023-01-13T19:42:34.531Z,50.875351
2023-01-13T19:43:34.487Z,50.875351
2023-01-13T19:44:34.477Z,50.875351
2023-01-13T19:45:34.471Z,50.875351
2023-01-13T19:46:34.600Z,50.875351
2023-01-13T19:47:34.530Z,50.875351
2023-01-13T19:48:34.401Z,50.875351
2023-01-13T19:49:34.444Z,50.875351
2023-01-13T19:50:34.422Z,50.875351
2023-01-13T19:51:34.360Z,50.875351
2023-01-13T19:52:34.372Z,50.875351
2023-01-13T19:53:34.348Z,50.875351
2023-01-13T19:54:34.336Z,50.875351
2023-01-13T19:55:34.320Z,50.875351
2023-01-13T19:56:34.324Z,50.875351
2023-01-13T19:57:34.316Z,50.875351
2023-01-13T19:58:34.283Z,50.875351
2023-01-13T19:59:35.274Z,50.875351
2023-01-13T20:00:34.269Z,50.875351
2023-01-13T20:01:34.366Z,50.875351
2023-01-13T20:02:34.294Z,50.875351
2023-01-13T20:03:34.245Z,50.875351
2023-01-13T20:04:34.221Z,50.875351
2023-01-13T20:05:34.223Z,50.875351
2023-01-13T20:06:34.242Z,50.875351
2023-01-13T20:07:34.212Z,50.875351
2023-01-13T20:08:34.187Z,50.875351
2023-01-13T20:09:34.170Z,50.875351
2023-01-13T20:10:34.160Z,50.875351
2023-01-13T20:11:34.166Z,50.875351
2023-01-13T20:12:34.169Z,50.875351
2023-01-13T20:13:34.126Z,50.875351
2023-01-13T20:14:34.138Z,50.875351
2023-01-13T20:15:34.117Z,50.875351
2023-01-13T20:16:34.102Z,50.875351
2023-01-13T20:17:34.098Z,50.875351
2023-01-13T20:18:34.110Z,50.875351
2023-01-13T20:19:34.080Z,50.875351
2023-01-13T20:20:34.065Z,50.875351
2023-01-13T20:21:34.054Z,50.875351
2023-01-13T20:22:34.044Z,50.875351
2023-01-13T20:23:34.048Z,50.875351
2023-01-13T20:24:34.022Z,50.875351
2023-01-13T20:25:34.085Z,50.875351
2023-01-13T20:26:34.019Z,50.875351
2023-01-13T20:27:34.006Z,50.875351
2023-01-13T20:28:34.096Z,50.875351
2023-01-13T20:29:33.988Z,50.875351
2023-01-13T20:30:34.004Z,50.875351
2023-01-13T20:31:34.000Z,50.875351
2023-01-13T20:32:33.968Z,50.875351
2023-01-13T20:33:33.966Z,50.875351
2023-01-13T20:34:33.935Z,50.875351
2023-01-13T20:35:33.942Z,50.875351
2023-01-13T20:36:33.936Z,50.875351
2023-01-13T20:37:33.915Z,50.875351
2023-01-13T20:38:33.936Z,50.875351
2023-01-13T20:39:33.877Z,50.875351
2023-01-13T20:40:33.860Z,50.875351
2023-01-13T20:41:33.956Z,50.875351
2023-01-13T20:42:33.872Z,50.875351
2023-01-13T20:43:33.861Z,50.875351
2023-01-13T20:44:33.865Z,50.875351
2023-01-13T20:45:33.990Z,50.875351
2023-01-13T20:46:33.957Z,50.875351
2023-01-13T20:47:33.838Z,50.875351
2023-01-13T20:48:33.801Z,50.875351
2023-01-13T20:49:33.811Z,50.875351
2023-01-13T20:50:33.835Z,50.875351
2023-01-13T20:51:33.810Z,50.875351
2023-01-13T20:52:33.800Z,50.875351
2023-01-13T20:53:33.786Z,50.875351
2023-01-13T20:54:33.788Z,50.875351
2023-01-13T20:55:33.757Z,50.875351
2023-01-13T20:56:33.729Z,50.875351
2023-01-13T20:57:33.743Z,50.875351
2023-01-13T20:58:33.748Z,50.875351
2023-01-13T20:59:33.773Z,50.875351
2023-01-13T21:00:33.779Z,50.875351
2023-01-13T21:01:34.996Z,50.875351
2023-01-13T21:02:33.714Z,50.875351
2023-01-13T21:03:33.908Z,50.875351
2023-01-13T21:04:33.658Z,50.875351
2023-01-13T21:05:33.637Z,50.875351
2023-01-13T21:06:33.621Z,50.875351
2023-01-13T21:07:33.636Z,50.875351
2023-01-13T21:08:33.639Z,50.875351
2023-01-13T21:09:33.602Z,50.875351
2023-01-13T21:10:33.587Z,50.875351
2023-01-13T21:11:33.707Z,50.875351
2023-01-13T21:12:33.577Z,50.875351
2023-01-13T21:13:33.591Z,50.875351
2023-01-13T21:14:33.561Z,50.875351
2023-01-13T21:15:33.565Z,50.875351
2023-01-13T21:16:33.578Z,50.875351
2023-01-13T21:17:33.549Z,50.875351
2023-01-13T21:18:33.543Z,50.875351
2023-01-13T21:19:33.515Z,50.875351
2023-01-13T21:20:33.518Z,50.875351
2023-01-13T21:21:33.533Z,50.875351
2023-01-13T21:22:33.488Z,50.875351
2023-01-13T21:23:33.470Z,50.875351
2023-01-13T21:24:33.476Z,50.875351
2023-01-13T21:25:35.294Z,50.875351
2023-01-13T21:26:34.487Z,50.875351
2023-01-13T21:27:33.439Z,50.875351
2023-01-13T21:28:33.428Z,50.875351
2023-01-13T21:29:33.406Z,50.875351
2023-01-13T21:30:33.581Z,50.875351
2023-01-13T21:31:33.424Z,50.875351
2023-01-13T21:32:33.377Z,50.875351
2023-01-13T21:33:33.397Z,50.875351
2023-01-13T21:34:33.379Z,50.875351
2023-01-13T21:35:33.358Z,50.875351
2023-01-13T21:36:33.353Z,50.875351
2023-01-13T21:37:33.337Z,50.875351
2023-01-13T21:38:33.398Z,50.875351
2023-01-13T21:39:34.307Z,50.875351
2023-01-13T21:40:33.307Z,50.875351
2023-01-13T21:41:33.292Z,50.875351
2023-01-13T21:42:33.277Z,50.875351
2023-01-13T21:43:33.281Z,50.875351
2023-01-13T21:44:33.279Z,50.875351
2023-01-13T21:45:33.240Z,50.875351
2023-01-13T21:46:33.270Z,50.875351
2023-01-13T21:47:33.255Z,50.875351
2023-01-13T21:48:33.234Z,50.875351
2023-01-13T21:49:33.327Z,50.875351
2023-01-13T21:50:33.221Z,50.875351
2023-01-13T21:51:33.169Z,50.875351
2023-01-13T21:52:33.177Z,50.875351
2023-01-13T21:53:33.196Z,50.875351
2023-01-13T21:54:33.159Z,50.875351
2023-01-13T21:55:33.191Z,50.875351
2023-01-13T21:56:33.154Z,50.875351
2023-01-13T21:57:33.140Z,50.875351
2023-01-13T21:58:33.129Z,50.875351
2023-01-13T21:59:33.117Z,50.875351
2023-01-13T22:00:33.076Z,50.875351
2023-01-13T22:01:33.184Z,50.875351
2023-01-13T22:02:33.239Z,50.875351
2023-01-13T22:03:33.226Z,50.875351
2023-01-13T22:04:33.064Z,50.875351
2023-01-13T22:05:33.038Z,50.875351
2023-01-13T22:06:33.087Z,50.875351
2023-01-13T22:07:33.010Z,50.875351
2023-01-13T22:08:33.028Z,50.875351
2023-01-13T22:09:33.989Z,50.875351
2023-01-13T22:10:33.020Z,50.875351
2023-01-13T22:11:32.971Z,50.875351
2023-01-13T22:12:32.979Z,50.875351
2023-01-13T22:13:32.945Z,50.875351
2023-01-13T22:14:32.964Z,50.875351
2023-01-13T22:15:32.929Z,50.875351
2023-01-13T22:16:32.970Z,50.875351
2023-01-13T22:17:32.919Z,50.875351
2023-01-13T22:18:32.920Z,50.875351
2023-01-13T22:19:32.929Z,50.875351
2023-01-13T22:20:32.887Z,50.875351
2023-01-13T22:21:32.896Z,50.875351
2023-01-13T22:22:32.884Z,50.875351
2023-01-13T22:23:32.864Z,50.875351
2023-01-13T22:24:32.857Z,50.875351
2023-01-13T22:25:32.833Z,50.875351
2023-01-13T22:26:33.512Z,50.875351
2023-01-13T22:27:32.837Z,50.875351
2023-01-13T22:28:32.813Z,50.875351
2023-01-13T22:29:32.815Z,50.875351
2023-01-13T22:30:32.803Z,50.875351
2023-01-13T22:31:32.893Z,50.875351
2023-01-13T22:32:33.328Z,50.875351
2023-01-13T22:33:32.732Z,50.875351
2023-01-13T22:34:32.788Z,50.875351
2023-01-13T22:35:32.693Z,50.875351
2023-01-13T22:36:32.789Z,50.875351
2023-01-13T22:37:32.683Z,50.875351
2023-01-13T22:38:32.680Z,50.875351
2023-01-13T22:39:32.692Z,50.875351
2023-01-13T22:40:32.858Z,50.875351
2023-01-13T22:41:32.646Z,50.875351
2023-01-13T22:42:32.625Z,50.875351
2023-01-13T22:43:32.601Z,50.875351
2023-01-13T22:44:32.846Z,50.875351
2023-01-13T22:45:32.708Z,50.875351
2023-01-13T22:46:32.604Z,50.875351
2023-01-13T22:47:32.594Z,50.875351
2023-01-13T22:48:32.568Z,50.875351
2023-01-13T22:49:32.546Z,50.875351
2023-01-13T22:50:33.727Z,50.875351
2023-01-13T22:51:32.547Z,50.875351
2023-01-13T22:52:32.534Z,50.875351
2023-01-13T22:53:32.530Z,50.875351
2023-01-13T22:54:32.542Z,50.875351
2023-01-13T22:55:32.504Z,50.875351
2023-01-13T22:56:32.485Z,50.875351
2023-01-13T22:57:46.467Z,50.875351
2023-01-13T22:58:34.490Z,50.875351
2023-01-13T22:59:32.489Z,50.875351
2023-01-13T23:00:32.543Z,50.875351
2023-01-13T23:01:32.446Z,50.875351
2023-01-13T23:02:32.444Z,50.875351
2023-01-13T23:03:32.468Z,50.875351
2023-01-13T23:04:33.003Z,50.875351
2023-01-13T23:05:32.644Z,50.875351
2023-01-13T23:06:32.395Z,50.875351
2023-01-13T23:07:32.385Z,50.875351
2023-01-13T23:08:32.373Z,50.875351
2023-01-13T23:09:32.390Z,50.875351
2023-01-13T23:10:33.031Z,50.875351
2023-01-13T23:11:32.329Z,50.875351
2023-01-13T23:12:32.325Z,50.875351
2023-01-13T23:13:32.323Z,50.875351